createdAt,value
2022-08-26T00:01:56.859Z,14.48
2022-08-26T00:04:26.124Z,14.41
2022-08-26T00:06:57.052Z,14.31
2022-08-26T00:09:25.522Z,14.24
2022-08-26T00:11:54.089Z,14.18
2022-08-26T00:14:24.203Z,14.13
2022-08-26T00:16:55.682Z,14.01
2022-08-26T00:19:23.225Z,13.96
2022-08-26T00:21:50.571Z,13.87
2022-08-26T00:24:19.807Z,13.79
2022-08-26T00:26:47.291Z,13.74
2022-08-26T00:29:18.343Z,13.72
2022-08-26T00:31:45.790Z,13.66
2022-08-26T00:34:13.927Z,13.61
2022-08-26T00:36:41.033Z,13.58
2022-08-26T00:39:08.625Z,13.57
2022-08-26T00:41:41.020Z,13.53
2022-08-26T00:44:11.223Z,13.50
2022-08-26T00:46:46.897Z,13.44
2022-08-26T00:49:20.511Z,13.41
2022-08-26T00:51:57.091Z,13.33
2022-08-26T00:54:27.837Z,13.25
2022-08-26T00:56:59.871Z,13.23
2022-08-26T00:59:32.920Z,13.18
2022-08-26T01:02:02.926Z,13.16
2022-08-26T01:04:34.335Z,13.19
2022-08-26T01:07:02.087Z,13.17
2022-08-26T01:09:29.863Z,13.15
2022-08-26T01:11:59.698Z,13.13
2022-08-26T01:14:33.313Z,13.07
2022-08-26T01:17:05.084Z,13.09
2022-08-26T01:19:42.695Z,13.13
2022-08-26T01:22:28.253Z,13.13
2022-08-26T01:24:59.131Z,13.12
2022-08-26T01:27:32.690Z,13.13
2022-08-26T01:30:01.550Z,13.13
2022-08-26T01:32:31.429Z,13.15
2022-08-26T01:34:59.896Z,13.25
2022-08-26T01:37:33.817Z,13.27
2022-08-26T01:40:01.130Z,13.31
2022-08-26T01:42:29.496Z,13.31
2022-08-26T01:45:06.549Z,13.30
2022-08-26T01:47:37.226Z,13.31
2022-08-26T01:50:18.089Z,13.27
2022-08-26T01:52:57.635Z,13.25
2022-08-26T01:55:33.215Z,13.26
2022-08-26T01:58:05.686Z,13.19
2022-08-26T02:00:34.747Z,13.20
2022-08-26T02:03:18.720Z,13.14
2022-08-26T02:05:59.255Z,13.04
2022-08-26T02:08:53.012Z,12.97
2022-08-26T02:11:20.091Z,12.99
2022-08-26T02:13:53.145Z,13.00
2022-08-26T02:16:25.171Z,12.96
2022-08-26T02:18:54.283Z,12.96
2022-08-26T02:21:21.979Z,12.91
2022-08-26T02:23:52.548Z,12.94
2022-08-26T02:26:27.005Z,12.86
2022-08-26T02:29:06.295Z,12.79
2022-08-26T02:31:34.589Z,12.81
2022-08-26T02:34:15.543Z,12.77
2022-08-26T02:36:43.125Z,12.86
2022-08-26T02:39:10.403Z,12.78
2022-08-26T02:41:45.229Z,12.77
2022-08-26T02:44:13.357Z,12.76
2022-08-26T02:46:40.782Z,12.80
2022-08-26T02:49:09.000Z,12.81
2022-08-26T02:51:35.866Z,12.83
2022-08-26T02:54:02.887Z,12.78
2022-08-26T02:56:34.483Z,12.77
2022-08-26T02:59:02.481Z,12.80
2022-08-26T03:01:34.230Z,12.82
2022-08-26T03:04:05.103Z,12.83
2022-08-26T03:06:32.771Z,12.81
2022-08-26T03:08:59.851Z,12.84
2022-08-26T03:11:32.245Z,12.84
2022-08-26T03:14:01.775Z,12.86
2022-08-26T03:16:37.042Z,12.86
2022-08-26T03:19:06.623Z,12.88
2022-08-26T03:21:36.959Z,12.91
2022-08-26T03:24:05.291Z,12.90
2022-08-26T03:26:32.200Z,12.85
2022-08-26T03:29:17.503Z,12.85
2022-08-26T03:31:44.455Z,12.82
2022-08-26T03:34:14.351Z,12.83
2022-08-26T03:36:42.234Z,12.83
2022-08-26T03:39:11.387Z,12.84
2022-08-26T03:41:39.342Z,12.89
2022-08-26T03:44:09.098Z,12.85
2022-08-26T03:46:36.704Z,12.84
2022-08-26T03:49:06.070Z,12.87
2022-08-26T03:51:34.868Z,12.88
2022-08-26T03:54:08.356Z,12.88
2022-08-26T03:56:35.411Z,12.87
2022-08-26T03:59:02.554Z,12.85
2022-08-26T04:01:31.005Z,12.87
2022-08-26T04:04:00.584Z,12.86
2022-08-26T04:06:58.547Z,12.80
2022-08-26T04:09:27.673Z,12.88
2022-08-26T04:11:55.557Z,12.84
2022-08-26T04:14:27.179Z,12.83
2022-08-26T04:16:56.852Z,12.85
2022-08-26T04:19:25.599Z,12.84
2022-08-26T04:21:54.119Z,12.82
2022-08-26T04:24:24.851Z,12.79
2022-08-26T04:26:52.508Z,12.77
2022-08-26T04:29:24.230Z,12.79
2022-08-26T04:31:55.459Z,12.78
2022-08-26T04:34:28.693Z,12.78
2022-08-26T04:36:58.267Z,12.75
2022-08-26T04:39:27.658Z,12.74
2022-08-26T04:41:55.405Z,12.72
2022-08-26T04:44:26.124Z,12.74
2022-08-26T04:46:53.950Z,12.72
2022-08-26T04:49:23.287Z,12.71
2022-08-26T04:51:53.148Z,12.73
2022-08-26T04:54:19.952Z,12.71
2022-08-26T04:56:49.681Z,12.67
2022-08-26T04:59:18.212Z,12.64
2022-08-26T05:01:49.255Z,12.61
2022-08-26T05:04:18.936Z,12.60
2022-08-26T05:06:50.237Z,12.57
2022-08-26T05:09:18.770Z,12.54
2022-08-26T05:11:48.322Z,12.49
2022-08-26T05:14:18.770Z,12.51
2022-08-26T05:16:45.596Z,12.50
2022-08-26T05:19:18.919Z,12.50
2022-08-26T05:21:48.535Z,12.49
2022-08-26T05:24:16.769Z,12.45
2022-08-26T05:26:44.607Z,12.47
2022-08-26T05:29:12.343Z,12.46
2022-08-26T05:31:39.579Z,12.48
2022-08-26T05:34:08.562Z,12.46
2022-08-26T05:36:37.134Z,12.49
2022-08-26T05:39:06.722Z,12.53
2022-08-26T05:41:38.452Z,12.55
2022-08-26T05:44:10.230Z,12.59
2022-08-26T05:46:40.226Z,12.63
2022-08-26T05:49:12.218Z,12.67
2022-08-26T05:51:47.583Z,12.74
2022-08-26T05:54:21.344Z,12.69
2022-08-26T05:56:53.136Z,12.80
2022-08-26T05:59:23.981Z,12.87
2022-08-26T06:01:53.056Z,12.91
2022-08-26T06:04:20.228Z,12.93
2022-08-26T06:06:47.391Z,12.93
2022-08-26T06:09:14.696Z,12.96
2022-08-26T06:11:45.482Z,12.96
2022-08-26T06:14:12.371Z,12.95
2022-08-26T06:16:43.892Z,12.98
2022-08-26T06:19:15.819Z,13.00
2022-08-26T06:21:47.895Z,13.04
2022-08-26T06:24:39.928Z,13.11
2022-08-26T06:27:11.473Z,13.24
2022-08-26T06:29:40.056Z,13.37
2022-08-26T06:32:07.103Z,13.47
2022-08-26T06:34:35.906Z,13.59
2022-08-26T06:37:03.724Z,13.73
2022-08-26T06:39:31.968Z,13.83
2022-08-26T06:42:00.634Z,13.96
2022-08-26T06:44:28.072Z,14.10
2022-08-26T06:46:55.098Z,14.21
2022-08-26T06:49:25.642Z,14.35
2022-08-26T06:51:58.751Z,14.54
2022-08-26T06:54:27.839Z,14.66
2022-08-26T06:56:57.057Z,14.92
2022-08-26T06:59:25.395Z,15.24
2022-08-26T07:01:52.412Z,15.45
2022-08-26T07:04:22.411Z,15.57
2022-08-26T07:06:52.897Z,15.66
2022-08-26T07:09:27.071Z,15.68
2022-08-26T07:11:56.672Z,15.74
2022-08-26T07:14:26.186Z,15.74
2022-08-26T07:16:54.612Z,15.72
2022-08-26T07:19:31.015Z,15.64
2022-08-26T07:22:05.684Z,15.61
2022-08-26T07:24:35.735Z,15.65
2022-08-26T07:27:08.710Z,15.78
2022-08-26T07:29:37.463Z,16.09
2022-08-26T07:32:05.679Z,16.32
2022-08-26T07:34:33.999Z,16.51
2022-08-26T07:37:01.441Z,16.73
2022-08-26T07:39:31.500Z,16.87
2022-08-26T07:42:01.509Z,16.99
2022-08-26T07:44:35.744Z,17.07
2022-08-26T07:47:02.766Z,17.10
2022-08-26T07:49:38.271Z,17.16
2022-08-26T07:52:06.568Z,17.20
2022-08-26T07:54:33.638Z,17.23
2022-08-26T07:57:00.986Z,17.24
2022-08-26T07:59:32.152Z,17.27
2022-08-26T08:01:59.971Z,17.27
2022-08-26T08:04:28.888Z,17.23
2022-08-26T08:06:56.105Z,17.40
2022-08-26T08:09:24.730Z,17.59
2022-08-26T08:11:53.101Z,17.77
2022-08-26T08:14:22.298Z,17.88
2022-08-26T08:16:51.159Z,17.99
2022-08-26T08:19:23.841Z,18.00
2022-08-26T08:21:51.873Z,18.05
2022-08-26T08:24:19.292Z,18.11
2022-08-26T08:26:46.328Z,18.27
2022-08-26T08:29:14.148Z,18.47
2022-08-26T08:31:58.387Z,18.69
2022-08-26T08:34:28.619Z,18.80
2022-08-26T08:36:57.537Z,18.79
2022-08-26T08:39:25.323Z,18.94
2022-08-26T08:42:14.193Z,19.10
2022-08-26T08:44:51.767Z,19.40
2022-08-26T08:47:32.058Z,19.82
2022-08-26T08:50:10.660Z,20.10
2022-08-26T08:52:41.516Z,20.39
2022-08-26T08:55:11.888Z,20.55
2022-08-26T08:58:14.582Z,20.63
2022-08-26T09:00:56.758Z,20.66
2022-08-26T09:03:46.901Z,20.72
2022-08-26T09:06:18.950Z,20.78
2022-08-26T09:08:50.067Z,20.71
2022-08-26T09:11:20.612Z,20.72
2022-08-26T09:13:57.901Z,20.63
2022-08-26T09:16:50.084Z,20.61
2022-08-26T09:19:37.900Z,20.64
2022-08-26T09:22:09.369Z,20.69
2022-08-26T09:24:41.876Z,20.55
2022-08-26T09:27:40.779Z,20.54
2022-08-26T09:30:24.095Z,20.42
2022-08-26T09:33:28.270Z,20.36
2022-08-26T09:36:36.462Z,20.42
2022-08-26T09:39:31.281Z,20.53
2022-08-26T09:42:14.282Z,20.64
2022-08-26T09:45:08.497Z,20.64
2022-08-26T09:48:02.197Z,20.78
2022-08-26T09:50:58.403Z,20.52
2022-08-26T09:53:34.630Z,20.71
2022-08-26T09:56:16.326Z,20.83
2022-08-26T09:58:47.423Z,20.86
2022-08-26T10:01:23.419Z,20.93
2022-08-26T10:03:51.637Z,20.94
2022-08-26T10:06:21.161Z,21.01
2022-08-26T10:09:11.079Z,20.98
2022-08-26T10:11:48.891Z,21.08
2022-08-26T10:14:34.804Z,21.19
2022-08-26T10:17:30.733Z,21.30
2022-08-26T10:20:09.847Z,21.27
2022-08-26T10:22:59.034Z,21.31
2022-08-26T10:26:09.672Z,21.33
2022-08-26T10:28:49.130Z,21.48
2022-08-26T10:31:29.280Z,21.51
2022-08-26T10:33:58.899Z,21.43
2022-08-26T10:37:15.206Z,21.49
2022-08-26T10:39:46.071Z,21.62
2022-08-26T10:42:33.381Z,21.68
2022-08-26T10:45:11.793Z,21.73
2022-08-26T10:47:54.896Z,21.83
2022-08-26T10:50:30.419Z,21.91
2022-08-26T10:53:42.639Z,21.97
2022-08-26T10:56:49.435Z,22.07
2022-08-26T10:59:39.332Z,22.15
2022-08-26T11:02:47.201Z,22.09
2022-08-26T11:05:23.715Z,22.23
2022-08-26T11:07:54.975Z,22.28
2022-08-26T11:10:21.733Z,22.32
2022-08-26T11:12:56.270Z,22.36
2022-08-26T11:15:28.244Z,22.44
2022-08-26T11:18:05.353Z,22.42
2022-08-26T11:20:45.985Z,22.52
2022-08-26T11:23:14.473Z,22.60
2022-08-26T11:25:57.157Z,22.65
2022-08-26T11:28:48.200Z,22.76
2022-08-26T11:31:27.465Z,22.80
2022-08-26T11:34:03.694Z,22.91
2022-08-26T11:36:45.731Z,23.00
2022-08-26T11:39:54.429Z,22.97
2022-08-26T11:42:44.530Z,23.07
2022-08-26T11:45:18.175Z,23.18
2022-08-26T11:47:46.674Z,23.24
2022-08-26T11:50:28.479Z,23.27
2022-08-26T11:53:02.443Z,23.16
2022-08-26T11:55:33.114Z,23.23
2022-08-26T11:58:02.516Z,23.25
2022-08-26T12:00:49.768Z,23.30
2022-08-26T12:03:23.058Z,23.30
2022-08-26T12:05:52.468Z,23.38
2022-08-26T12:08:28.120Z,23.50
2022-08-26T12:11:13.879Z,23.55
2022-08-26T12:13:41.993Z,23.58
2022-08-26T12:16:09.930Z,23.69
2022-08-26T12:18:39.144Z,23.83
2022-08-26T12:21:24.903Z,23.84
2022-08-26T12:23:55.476Z,23.90
2022-08-26T12:26:29.686Z,23.93
2022-08-26T12:29:20.234Z,23.87
2022-08-26T12:32:10.135Z,23.93
2022-08-26T12:34:37.346Z,24.01
2022-08-26T12:37:04.630Z,24.02
2022-08-26T12:39:37.726Z,24.05
2022-08-26T12:42:12.899Z,24.08
2022-08-26T12:44:54.110Z,24.13
2022-08-26T12:47:41.858Z,24.22
2022-08-26T12:50:31.054Z,24.29
2022-08-26T12:53:03.049Z,24.38
2022-08-26T12:55:52.340Z,24.41
2022-08-26T12:58:27.307Z,24.47
2022-08-26T13:01:04.215Z,24.52
2022-08-26T13:03:33.954Z,24.48
2022-08-26T13:06:31.828Z,24.51
2022-08-26T13:09:04.509Z,24.50
2022-08-26T13:11:35.964Z,24.42
2022-08-26T13:14:21.224Z,24.43
2022-08-26T13:16:53.119Z,24.39
2022-08-26T13:19:25.784Z,24.15
2022-08-26T13:22:00.985Z,24.24
2022-08-26T13:24:56.327Z,24.30
2022-08-26T13:27:26.487Z,24.26
2022-08-26T13:29:54.598Z,24.17
2022-08-26T13:32:22.653Z,24.17
2022-08-26T13:34:56.673Z,24.27
2022-08-26T13:37:29.295Z,24.24
2022-08-26T13:40:05.684Z,24.22
2022-08-26T13:42:32.751Z,23.99
2022-08-26T13:45:01.322Z,24.19
2022-08-26T13:47:28.792Z,24.20
2022-08-26T13:49:56.496Z,24.20
2022-08-26T13:52:30.056Z,24.02
2022-08-26T13:55:00.337Z,24.22
2022-08-26T13:57:30.200Z,24.28
2022-08-26T13:59:59.500Z,24.39
2022-08-26T14:02:28.013Z,24.41
2022-08-26T14:04:55.529Z,24.34
2022-08-26T14:07:23.112Z,24.55
2022-08-26T14:09:50.488Z,24.65
2022-08-26T14:12:18.100Z,24.51
2022-08-26T14:14:45.183Z,24.66
2022-08-26T14:17:18.574Z,24.68
2022-08-26T14:19:47.355Z,24.64
2022-08-26T14:22:17.490Z,24.44
2022-08-26T14:24:45.135Z,24.44
2022-08-26T14:27:13.389Z,24.50
2022-08-26T14:29:40.755Z,24.52
2022-08-26T14:32:25.647Z,24.40
2022-08-26T14:34:53.119Z,24.20
2022-08-26T14:37:20.736Z,24.27
2022-08-26T14:39:48.098Z,24.26
2022-08-26T14:42:23.954Z,24.17
2022-08-26T14:44:56.867Z,24.16
2022-08-26T14:47:23.799Z,24.25
2022-08-26T14:49:51.376Z,24.17
2022-08-26T14:52:18.524Z,24.19
2022-08-26T14:54:45.498Z,24.13
2022-08-26T14:57:14.839Z,24.13
2022-08-26T14:59:49.612Z,24.10
2022-08-26T15:02:25.260Z,24.20
2022-08-26T15:04:59.960Z,24.22
2022-08-26T15:07:27.086Z,24.37
2022-08-26T15:09:53.912Z,24.48
2022-08-26T15:12:21.559Z,24.44
2022-08-26T15:14:48.483Z,24.29
2022-08-26T15:17:15.291Z,24.12
2022-08-26T15:19:42.220Z,24.22
2022-08-26T15:22:09.181Z,24.26
2022-08-26T15:24:36.674Z,24.33
2022-08-26T15:27:04.244Z,24.30
2022-08-26T15:29:31.248Z,24.49
2022-08-26T15:32:02.257Z,24.45
2022-08-26T15:34:29.075Z,24.31
2022-08-26T15:36:56.180Z,24.27
2022-08-26T15:39:23.020Z,24.33
2022-08-26T15:41:50.493Z,24.29
2022-08-26T15:44:18.552Z,24.33
2022-08-26T15:46:47.777Z,24.43
2022-08-26T15:49:17.784Z,24.47
2022-08-26T15:51:48.011Z,24.50
2022-08-26T15:54:17.211Z,24.44
2022-08-26T15:56:44.412Z,24.51
2022-08-26T15:59:12.146Z,24.47
2022-08-26T16:01:39.830Z,24.55
2022-08-26T16:04:07.729Z,24.67
2022-08-26T16:06:38.588Z,24.72
2022-08-26T16:09:07.363Z,24.73
2022-08-26T16:11:38.904Z,24.64
2022-08-26T16:14:07.325Z,24.65
2022-08-26T16:16:39.544Z,24.56
2022-08-26T16:19:08.073Z,24.45
2022-08-26T16:21:35.901Z,24.40
2022-08-26T16:24:03.669Z,24.32
2022-08-26T16:26:34.154Z,24.24
2022-08-26T16:29:03.827Z,24.19
2022-08-26T16:31:30.929Z,24.21
2022-08-26T16:33:57.946Z,24.24
2022-08-26T16:36:24.743Z,24.19
2022-08-26T16:38:55.413Z,24.23
2022-08-26T16:41:28.718Z,24.13
2022-08-26T16:43:56.055Z,24.09
2022-08-26T16:46:26.003Z,23.96
2022-08-26T16:48:54.875Z,23.88
2022-08-26T16:51:24.333Z,23.81
2022-08-26T16:53:51.845Z,23.68
2022-08-26T16:56:23.115Z,23.59
2022-08-26T16:59:00.740Z,23.57
2022-08-26T17:01:28.813Z,23.47
2022-08-26T17:03:55.723Z,23.42
2022-08-26T17:06:22.610Z,23.34
2022-08-26T17:08:49.847Z,23.29
2022-08-26T17:11:16.771Z,23.26
2022-08-26T17:13:43.637Z,23.19
2022-08-26T17:16:12.356Z,23.17
2022-08-26T17:18:39.371Z,23.11
2022-08-26T17:21:10.157Z,23.07
2022-08-26T17:23:38.558Z,23.05
2022-08-26T17:26:05.838Z,23.01
2022-08-26T17:28:33.275Z,23.02
2022-08-26T17:31:01.422Z,23.00
2022-08-26T17:33:29.959Z,23.01
2022-08-26T17:35:57.066Z,22.94
2022-08-26T17:38:24.883Z,22.91
2022-08-26T17:40:52.148Z,22.86
2022-08-26T17:43:19.223Z,22.84
2022-08-26T17:45:46.814Z,22.80
2022-08-26T17:48:14.123Z,22.79
2022-08-26T17:50:42.785Z,22.75
2022-08-26T17:53:12.785Z,22.72
2022-08-26T17:55:48.048Z,22.71
2022-08-26T17:58:18.052Z,22.66
2022-08-26T18:00:50.838Z,22.63
2022-08-26T18:03:19.290Z,22.61
2022-08-26T18:05:51.486Z,22.57
2022-08-26T18:08:19.723Z,22.55
2022-08-26T18:10:47.210Z,22.50
2022-08-26T18:13:15.059Z,22.50
2022-08-26T18:15:46.048Z,22.47
2022-08-26T18:18:14.751Z,22.45
2022-08-26T18:20:43.721Z,22.42
2022-08-26T18:23:11.932Z,22.35
2022-08-26T18:25:43.860Z,22.26
2022-08-26T18:28:11.020Z,22.19
2022-08-26T18:30:38.212Z,22.16
2022-08-26T18:33:05.111Z,22.12
2022-08-26T18:35:31.963Z,22.07
2022-08-26T18:38:01.413Z,22.02
2022-08-26T18:40:41.054Z,21.95
2022-08-26T18:43:08.494Z,21.88
2022-08-26T18:45:35.386Z,21.85
2022-08-26T18:48:04.164Z,21.82
2022-08-26T18:50:31.244Z,21.79
2022-08-26T18:52:58.360Z,21.75
2022-08-26T18:55:25.547Z,21.72
2022-08-26T18:57:52.514Z,21.70
2022-08-26T19:00:19.458Z,21.67
2022-08-26T19:02:47.066Z,21.62
2022-08-26T19:05:19.449Z,21.60
2022-08-26T19:07:47.988Z,21.57
2022-08-26T19:10:15.289Z,21.53
2022-08-26T19:12:42.686Z,21.52
2022-08-26T19:15:11.432Z,21.49
2022-08-26T19:17:38.583Z,21.47
2022-08-26T19:20:06.576Z,21.43
2022-08-26T19:22:33.676Z,21.39
2022-08-26T19:25:01.440Z,21.35
2022-08-26T19:27:28.558Z,21.29
2022-08-26T19:29:56.547Z,21.29
2022-08-26T19:32:24.438Z,21.23
2022-08-26T19:34:54.763Z,21.20
2022-08-26T19:37:21.757Z,21.19
2022-08-26T19:39:48.892Z,21.20
2022-08-26T19:42:16.632Z,21.16
2022-08-26T19:45:02.551Z,21.14
2022-08-26T19:47:29.754Z,21.10
2022-08-26T19:49:57.407Z,21.05
2022-08-26T19:52:29.834Z,20.99
2022-08-26T19:54:58.710Z,20.98
2022-08-26T19:57:25.741Z,20.95
2022-08-26T19:59:52.585Z,20.90
2022-08-26T20:02:19.506Z,20.87
2022-08-26T20:04:46.422Z,20.83
2022-08-26T20:07:18.057Z,20.84
2022-08-26T20:09:47.339Z,20.78
2022-08-26T20:12:15.630Z,20.74
2022-08-26T20:14:43.661Z,20.69
2022-08-26T20:17:10.971Z,20.68
2022-08-26T20:19:56.880Z,20.64
2022-08-26T20:22:23.838Z,20.58
2022-08-26T20:24:52.302Z,20.51
2022-08-26T20:27:19.150Z,20.47
2022-08-26T20:29:46.008Z,20.42
2022-08-26T20:32:12.874Z,20.39
2022-08-26T20:34:40.117Z,20.35
2022-08-26T20:37:08.618Z,20.29
2022-08-26T20:39:36.046Z,20.29
2022-08-26T20:42:03.443Z,20.24
2022-08-26T20:44:30.324Z,20.25
2022-08-26T20:46:59.208Z,20.23
2022-08-26T20:49:28.328Z,20.21
2022-08-26T20:51:55.514Z,20.21
2022-08-26T20:54:28.261Z,20.19
2022-08-26T20:56:57.835Z,20.23
2022-08-26T20:59:25.723Z,20.13
2022-08-26T21:01:52.695Z,20.14
2022-08-26T21:04:24.318Z,20.13
2022-08-26T21:06:52.680Z,20.13
2022-08-26T21:09:22.593Z,20.15
2022-08-26T21:11:50.263Z,20.11
2022-08-26T21:14:19.122Z,20.09
2022-08-26T21:16:46.735Z,20.08
2022-08-26T21:19:18.121Z,20.06
2022-08-26T21:21:47.643Z,20.10
2022-08-26T21:24:15.154Z,20.03
2022-08-26T21:26:42.125Z,19.98
2022-08-26T21:29:10.072Z,19.96
2022-08-26T21:31:42.174Z,19.87
2022-08-26T21:34:12.752Z,19.65
2022-08-26T21:36:39.562Z,19.63
2022-08-26T21:39:11.278Z,19.54
2022-08-26T21:41:40.323Z,19.47
2022-08-26T21:44:07.861Z,19.38
2022-08-26T21:46:37.406Z,19.31
2022-08-26T21:49:08.247Z,19.17
2022-08-26T21:51:42.973Z,19.03
2022-08-26T21:54:11.596Z,19.04
2022-08-26T21:56:44.750Z,18.99
2022-08-26T21:59:13.021Z,18.89
2022-08-26T22:01:40.007Z,18.81
2022-08-26T22:04:09.309Z,18.79
2022-08-26T22:06:44.778Z,18.72
2022-08-26T22:09:14.492Z,18.74
2022-08-26T22:11:42.272Z,18.69
2022-08-26T22:14:10.396Z,18.64
2022-08-26T22:16:37.787Z,18.56
2022-08-26T22:19:04.656Z,18.49
2022-08-26T22:21:32.364Z,18.44
2022-08-26T22:23:59.295Z,18.44
2022-08-26T22:26:30.779Z,18.39
2022-08-26T22:28:59.759Z,18.39
2022-08-26T22:31:37.701Z,18.36
2022-08-26T22:34:12.646Z,18.34
2022-08-26T22:36:44.186Z,18.27
2022-08-26T22:39:14.002Z,18.23
2022-08-26T22:41:43.177Z,18.23
2022-08-26T22:44:12.005Z,18.21
2022-08-26T22:46:40.893Z,18.18
2022-08-26T22:49:10.995Z,18.16
2022-08-26T22:51:38.070Z,18.10
2022-08-26T22:54:06.094Z,18.04
2022-08-26T22:56:32.956Z,18.04
2022-08-26T22:58:59.988Z,18.02
2022-08-26T23:01:27.047Z,17.94
2022-08-26T23:03:54.013Z,17.92
2022-08-26T23:06:21.333Z,17.82
2022-08-26T23:08:48.315Z,17.78
2022-08-26T23:11:15.155Z,17.70
2022-08-26T23:13:42.691Z,17.70
2022-08-26T23:16:13.161Z,17.67
2022-08-26T23:18:41.743Z,17.67
2022-08-26T23:21:09.476Z,17.64
2022-08-26T23:23:38.140Z,17.68
2022-08-26T23:26:07.927Z,17.66
2022-08-26T23:28:37.594Z,17.69
2022-08-26T23:31:05.727Z,17.71
2022-08-26T23:33:51.072Z,17.74
2022-08-26T23:36:22.572Z,17.68
2022-08-26T23:38:52.800Z,17.71
2022-08-26T23:41:22.567Z,17.69
2022-08-26T23:43:50.282Z,17.63
2022-08-26T23:46:18.168Z,17.61
2022-08-26T23:48:45.022Z,17.56
2022-08-26T23:51:30.683Z,17.53
2022-08-26T23:53:58.094Z,17.46
2022-08-26T23:56:26.667Z,17.39
2022-08-26T23:58:55.299Z,17.38
